Time;durP1;ratioP1;P1;durP2;ratioP2;P2;SDS_P1;SDS_P2;PMS_P1;PMS_P2;Temp;Humidity;BMP_temperature;BMP_pressure;BME280_temperature;BME280_humidity;BME280_pressure;Samples;Min_cycle;Max_cycle;Signal;HPM_P1;HPM_P2
2022/08/14 00:01:29;;;;;;;5.28;2.30;;;22.10;99.90;;;;;;10356678;28;20193;-77
2022/08/14 00:06:51;;;;;;;4.70;1.83;;;21.90;1.00;;;;;;10316919;28;20451;-77
2022/08/14 00:12:12;;;;;;;2.00;1.40;;;21.60;1.00;;;;;;10316195;28;20429;-76
2022/08/14 00:17:34;;;;;;;2.67;1.60;;;21.50;1.00;;;;;;10301124;28;20210;-76
2022/08/14 00:22:55;;;;;;;2.67;2.15;;;21.50;1.00;;;;;;10314677;28;20217;-76
2022/08/14 00:28:20;;;;;;;4.05;2.00;;;21.40;84.40;;;;;;10315115;28;20234;-77
2022/08/14 00:33:42;;;;;;;2.78;2.15;;;;;;;;;;10391414;28;20227;-77
2022/08/14 00:39:04;;;;;;;4.00;2.38;;;;;;;;;;10396074;28;20231;-76
2022/08/14 00:44:26;;;;;;;3.53;2.50;;;21.40;99.90;;;;;;10378623;28;20420;-76
2022/08/14 00:49:47;;;;;;;3.65;2.25;;;21.10;99.90;;;;;;10395992;28;20381;-77
2022/08/14 00:55:10;;;;;;;3.00;1.90;;;20.90;99.90;;;;;;10321407;28;20209;-76
2022/08/14 01:00:33;;;;;;;3.25;2.33;;;20.80;1.00;;;;;;10353611;28;20225;-76
2022/08/14 01:05:56;;;;;;;3.13;2.20;;;20.70;1.00;;;;;;10330356;28;20434;-76
2022/08/14 01:11:18;;;;;;;3.95;2.38;;;20.60;1.00;;;;;;10340422;28;20190;-76
2022/08/14 01:16:39;;;;;;;7.10;2.50;;;20.60;1.00;;;;;;10323972;28;20296;-76
2022/08/14 01:22:01;;;;;;;4.68;2.42;;;20.50;1.00;;;;;;10348468;28;20212;-76
2022/08/14 01:27:23;;;;;;;3.60;2.17;;;20.50;1.00;;;;;;10331314;28;20206;-76
2022/08/14 01:32:45;;;;;;;3.83;2.30;;;20.50;1.00;;;;;;10361837;28;20231;-76
2022/08/14 01:38:08;;;;;;;5.28;2.42;;;20.50;1.00;;;;;;10385144;28;20228;-76
2022/08/14 01:43:29;;;;;;;4.90;2.30;;;20.50;1.00;;;;;;10384744;28;20248;-76
2022/08/14 01:48:52;;;;;;;2.17;1.88;;;20.40;1.00;;;;;;10402361;28;20204;-76
2022/08/14 01:54:20;;;;;;;6.15;2.20;;;20.40;1.00;;;;;;10351956;28;20198;-77
2022/08/14 01:59:43;;;;;;;2.72;2.00;;;20.40;1.00;;;;;;10361385;28;20233;-77
2022/08/14 02:05:06;;;;;;;4.70;2.47;;;20.40;1.00;;;;;;10337720;28;20191;-77
2022/08/14 02:10:34;;;;;;;3.67;2.53;;;20.40;1.00;;;;;;10320304;28;20206;-77
2022/08/14 02:15:59;;;;;;;2.40;1.90;;;20.30;1.00;;;;;;10320261;28;20218;-76
2022/08/14 02:21:20;;;;;;;2.80;2.40;;;20.40;1.00;;;;;;10320347;28;20203;-77
2022/08/14 02:26:48;;;;;;;4.35;2.65;;;20.30;1.00;;;;;;10334983;28;20209;-76
2022/08/14 02:32:10;;;;;;;4.10;2.28;;;20.30;1.00;;;;;;10370567;28;20241;-76
2022/08/14 02:37:32;;;;;;;4.28;2.58;;;20.30;1.00;;;;;;10400462;28;20446;-76
2022/08/14 02:42:55;;;;;;;3.58;2.17;;;20.30;1.00;;;;;;10382565;28;20201;-77
2022/08/14 02:48:16;;;;;;;3.88;2.00;;;20.20;1.00;;;;;;10400129;28;20224;-79
2022/08/14 02:53:40;;;;;;;7.15;2.33;;;20.10;1.00;;;;;;10368612;28;20198;-79
2022/08/14 02:59:05;;;;;;;6.00;2.97;;;20.10;1.00;;;;;;10358990;28;20234;-77
2022/08/14 03:04:27;;;;;;;5.97;2.70;;;20.10;1.00;;;;;;10325844;28;20233;-79
2022/08/14 03:09:48;;;;;;;3.75;2.42;;;20.10;1.00;;;;;;10303760;28;20222;-78
2022/08/14 03:15:12;;;;;;;3.85;2.85;;;;;;;;;;10333320;28;20208;-79
2022/08/14 03:20:35;;;;;;;6.85;2.80;;;;;;;;;;10317964;28;20195;-79
2022/08/14 03:25:57;;;;;;;4.93;2.78;;;;;;;;;;10317669;28;20242;-80
2022/08/14 03:31:22;;;;;;;5.25;2.53;;;;;;;;;;10358889;28;20419;-80
2022/08/14 03:36:44;;;;;;;3.42;2.95;;;;;;;;;;10397821;28;20262;-80
2022/08/14 03:42:07;;;;;;;4.07;2.50;;;;;;;;;;10380376;28;20203;-78
2022/08/14 03:47:29;;;;;;;3.15;2.40;;;;;;;;;;10383175;28;20268;-77
2022/08/14 03:52:52;;;;;;;4.82;2.60;;;;;;;;;;10354934;28;20246;-76
2022/08/14 03:58:14;;;;;;;6.15;2.65;;;;;;;;;;10356883;28;20289;-79
2022/08/14 04:03:36;;;;;;;3.97;2.60;;;;;;;;;;10345295;28;20269;-79
2022/08/14 04:08:58;;;;;;;5.28;2.67;;;;;;;;;;10301263;28;20272;-78
2022/08/14 04:14:19;;;;;;;7.50;2.88;;;;;;;;;;10314631;28;20194;-79
2022/08/14 04:19:41;;;;;;;4.75;2.33;;;;;;;;;;10314743;28;20230;-79
2022/08/14 04:25:03;;;;;;;7.18;3.45;;;;;;;;;;10315646;28;20233;-79
2022/08/14 04:30:27;;;;;;;6.22;2.92;;;;;;;;;;10341339;28;20248;-79
2022/08/14 04:35:51;;;;;;;5.57;2.88;;;;;;;;;;10381456;28;20438;-79
2022/08/14 04:52:55;;;;;;;7.20;2.90;;;;;;;;;;10243299;29;20234;-79
2022/08/14 04:58:18;;;;;;;4.05;2.60;;;;;;;;;;10240129;29;20251;-80
2022/08/14 05:03:41;;;;;;;5.85;2.88;;;;;;;;;;10239477;29;20246;-79
2022/08/14 05:09:03;;;;;;;4.97;2.45;;;;;;;;;;10239816;29;20215;-78
2022/08/14 05:14:26;;;;;;;7.40;2.83;;;;;;;;;;10248556;28;20287;-78
2022/08/14 05:19:48;;;;;;;4.53;2.20;;;;;;;;;;10321995;28;20240;-79
2022/08/14 05:25:09;;;;;;;6.38;2.92;;;;;;;;;;10307796;28;20198;-78
2022/08/14 05:30:31;;;;;;;3.13;2.58;;;;;;;;;;10333342;28;20237;-80
2022/08/14 05:35:59;;;;;;;3.13;2.50;;;;;;;;;;10402524;28;20487;-79
2022/08/14 05:41:21;;;;;;;5.10;2.30;;;;;;;;;;10402635;28;20297;-77
2022/08/14 05:46:43;;;;;;;7.00;2.75;;;;;;;;;;10384733;28;20205;-77
2022/08/14 05:52:05;;;;;;;3.88;2.78;;;;;;;;;;10371047;28;20237;-80
2022/08/14 05:57:26;;;;;;;3.90;2.55;;;;;;;;;;10359602;28;20446;-80
2022/08/14 06:02:48;;;;;;;3.08;2.17;;;;;;;;;;10341248;28;20183;-79
2022/08/14 06:08:31;;;;;;;5.50;2.45;;;22.30;1.00;;;;;;10318425;28;20207;-81
2022/08/14 06:13:53;;;;;;;3.55;2.35;;;22.70;1.00;;;;;;10320330;28;20190;-80
2022/08/14 06:19:14;;;;;;;3.05;2.50;;;22.80;1.00;;;;;;10320018;28;20229;-81
2022/08/14 06:24:35;;;;;;;5.93;2.83;;;23.70;99.90;;;;;;10320324;28;20217;-80
2022/08/14 06:29:57;;;;;;;3.88;2.42;;;;;;;;;;10339160;28;20240;-80
2022/08/14 06:35:22;;;;;;;7.32;2.72;;;25.70;99.90;;;;;;10400773;28;20199;-79
2022/08/14 06:40:44;;;;;;;8.43;2.58;;;25.70;99.90;;;;;;10400248;28;20487;-78
2022/08/14 06:46:08;;;;;;;3.97;2.35;;;27.10;36.70;;;;;;10400031;28;20185;-78
2022/08/14 06:51:30;;;;;;;5.95;2.45;;;;;;;;;;10395757;28;20521;-80
2022/08/14 06:56:51;;;;;;;4.85;3.15;;;29.00;1.00;;;;;;10352647;28;20241;-78
2022/08/14 07:07:53;;;;;;;5.80;2.40;;;29.70;1.00;;;;;;10318569;28;20191;-79
2022/08/14 07:13:17;;;;;;;4.88;2.83;;;30.20;1.00;;;;;;10318203;28;20249;-78
2022/08/14 07:18:44;;;;;;;9.75;3.40;;;30.60;99.90;;;;;;10302759;28;20417;-77
2022/08/14 07:24:06;;;;;;;6.13;2.80;;;31.00;99.90;;;;;;10303214;28;20489;-78
2022/08/14 07:29:27;;;;;;;4.20;2.85;;;31.20;1.00;;;;;;10300655;28;20283;-79
2022/08/14 07:34:49;;;;;;;6.85;3.03;;;31.60;1.00;;;;;;10398543;28;20243;-78
2022/08/14 07:40:11;;;;;;;11.30;2.92;;;31.90;1.00;;;;;;10383405;28;20244;-77
2022/08/14 07:45:34;;;;;;;6.05;2.70;;;32.50;1.00;;;;;;10383468;28;20204;-78
2022/08/14 07:50:56;;;;;;;5.03;2.78;;;32.70;1.00;;;;;;10366720;28;20193;-78
2022/08/14 07:56:28;;;;;;;9.23;2.50;;;32.60;1.00;;;;;;10356885;28;20251;-78
2022/08/14 08:01:51;;;;;;;5.20;2.50;;;33.00;1.00;;;;;;10356544;28;20244;-78
2022/08/14 08:07:12;;;;;;;3.47;2.30;;;33.40;1.00;;;;;;10316294;28;20201;-78
2022/08/14 08:12:34;;;;;;;3.15;2.08;;;33.20;99.90;;;;;;10316016;28;20198;-77
2022/08/14 08:17:56;;;;;;;7.00;2.05;;;33.60;99.90;;;;;;10314829;28;20238;-79
2022/08/14 08:23:19;;;;;;;10.23;3.03;;;33.60;1.00;;;;;;10314995;28;20511;-77
2022/08/14 08:28:41;;;;;;;9.63;2.85;;;33.60;99.90;;;;;;10315092;28;20238;-77
2022/08/14 08:34:05;;;;;;;2.38;2.13;;;33.70;99.90;;;;;;10355975;28;20213;-77
2022/08/14 08:39:26;;;;;;;2.80;1.90;;;34.10;99.90;;;;;;10341385;28;20448;-77
2022/08/14 08:44:56;;;;;;;4.35;2.40;;;34.30;99.90;;;;;;10340850;28;20189;-77
2022/08/14 08:50:19;;;;;;;4.60;2.30;;;34.90;99.90;;;;;;10355270;28;20302;-77
2022/08/14 08:55:43;;;;;;;2.65;2.30;;;35.00;45.20;;;;;;10343310;28;20281;-78
2022/08/14 09:01:05;;;;;;;4.28;2.60;;;35.00;34.10;;;;;;10340602;28;20520;-77
2022/08/14 09:06:26;;;;;;;3.33;1.98;;;35.30;1.00;;;;;;10320665;28;20195;-78
2022/08/14 09:11:48;;;;;;;3.50;2.65;;;35.70;1.00;;;;;;10314448;28;20194;-78
2022/08/14 09:17:10;;;;;;;3.13;2.15;;;36.10;54.00;;;;;;10314596;28;20441;-78
2022/08/14 09:22:32;;;;;;;3.95;2.08;;;35.90;28.40;;;;;;10314550;28;20261;-77
2022/08/14 09:27:54;;;;;;;4.25;2.10;;;36.00;16.80;;;;;;10329295;28;20559;-78
2022/08/14 09:33:39;;;;;;;6.00;2.38;;;36.00;91.70;;;;;;10387585;28;20395;-77
2022/08/14 09:39:10;;;;;;;4.00;2.13;;;36.20;96.20;;;;;;10232192;29;20309;-77
2022/08/14 09:45:16;;;;;;;7.57;2.33;;;36.50;99.90;;;;;;10238156;29;20282;-78
2022/08/14 09:50:55;;;;;;;9.43;4.18;;;36.50;99.90;;;;;;10238161;29;20279;-77
2022/08/14 09:56:17;;;;;;;8.05;3.67;;;36.20;99.90;;;;;;10174354;29;20240;-78
2022/08/14 10:01:39;;;;;;;3.17;1.92;;;36.60;99.90;;;;;;10198598;29;20204;-78
2022/08/14 10:07:01;;;;;;;7.10;2.58;;;;;;;;;;10233305;29;20235;-78
2022/08/14 10:12:22;;;;;;;3.97;2.33;;;36.80;99.90;;;;;;10248322;28;20209;-78
2022/08/14 10:17:43;;;;;;;2.42;2.13;;;36.30;99.90;;;;;;10360591;28;20548;-78
2022/08/14 10:23:17;;;;;;;5.13;2.65;;;36.60;99.90;;;;;;10360417;28;20190;-78
2022/08/14 10:28:50;;;;;;;9.20;2.40;;;36.90;99.90;;;;;;10360040;28;20238;-80
2022/08/14 10:34:17;;;;;;;3.75;2.65;;;36.60;99.90;;;;;;10320136;28;20359;-81
2022/08/14 10:39:40;;;;;;;6.38;2.60;;;37.00;99.90;;;;;;10319202;28;20229;-77
2022/08/14 10:45:24;;;;;;;4.70;2.65;;;37.20;99.90;;;;;;10291921;28;20194;-77
2022/08/14 10:50:50;;;;;;;3.83;2.28;;;37.20;99.90;;;;;;10318279;28;20220;-77
2022/08/14 10:56:12;;;;;;;4.03;2.58;;;37.20;99.90;;;;;;10333042;28;20206;-78
2022/08/14 11:01:37;;;;;;;3.00;1.90;;;37.20;99.90;;;;;;10359209;28;20273;-77
2022/08/14 11:06:58;;;;;;;3.45;2.03;;;37.40;99.90;;;;;;10319744;28;20226;-77
2022/08/14 11:12:20;;;;;;;6.43;2.20;;;37.20;99.90;;;;;;10317491;28;20206;-79
2022/08/14 11:17:45;;;;;;;4.30;2.22;;;37.00;99.90;;;;;;10333061;28;20411;-78
2022/08/14 11:23:08;;;;;;;8.30;4.85;;;37.30;99.90;;;;;;10332927;28;20235;-78
2022/08/14 11:28:33;;;;;;;3.10;2.70;;;37.30;99.90;;;;;;10317368;28;20460;-78
2022/08/14 11:33:56;;;;;;;4.22;2.63;;;37.30;99.90;;;;;;10366186;28;20216;-77
2022/08/14 11:39:23;;;;;;;4.47;2.50;;;37.10;99.90;;;;;;10366825;28;20404;-77
2022/08/14 11:44:44;;;;;;;3.63;2.90;;;36.30;99.90;;;;;;10397926;28;20484;-77
2022/08/14 11:50:20;;;;;;;4.80;2.80;;;35.40;99.90;;;;;;10397738;28;20200;-77
2022/08/14 11:55:41;;;;;;;4.43;2.80;;;35.40;99.90;;;;;;10349760;28;20202;-78
2022/08/14 12:01:06;;;;;;;4.20;3.30;;;35.90;99.90;;;;;;10355671;28;20229;-78
2022/08/14 12:06:27;;;;;;;5.35;3.53;;;35.70;99.90;;;;;;10321863;28;20194;-77
2022/08/14 12:11:49;;;;;;;5.88;3.58;;;36.20;99.90;;;;;;10316178;28;20191;-77
2022/08/14 12:17:12;;;;;;;6.38;3.47;;;36.40;99.90;;;;;;10330867;28;20290;-78
2022/08/14 12:22:38;;;;;;;5.55;3.22;;;36.20;99.10;;;;;;10330688;28;20393;-78
2022/08/14 12:28:04;;;;;;;5.50;3.70;;;36.30;99.90;;;;;;10315737;28;20226;-77
2022/08/14 12:33:31;;;;;;;7.97;3.42;;;36.10;94.60;;;;;;10391167;28;20546;-77
2022/08/14 12:38:54;;;;;;;8.90;3.70;;;35.90;94.40;;;;;;10381773;28;20224;-78
2022/08/14 12:44:15;;;;;;;5.60;4.20;;;35.80;93.00;;;;;;10396247;28;20264;-77
2022/08/14 12:49:37;;;;;;;4.38;3.97;;;35.80;99.90;;;;;;10381262;28;20509;-78
2022/08/14 12:55:02;;;;;;;7.13;4.28;;;35.30;88.60;;;;;;10339298;28;20289;-78
2022/08/14 13:00:24;;;;;;;7.03;3.78;;;34.60;90.70;;;;;;10354040;28;20229;-78
2022/08/14 13:05:48;;;;;;;5.10;4.03;;;33.90;66.60;;;;;;10326197;28;20221;-77
2022/08/14 13:11:13;;;;;;;9.07;4.00;;;33.50;90.40;;;;;;10313871;28;20269;-77
2022/08/14 13:16:35;;;;;;;5.78;3.72;;;33.60;93.20;;;;;;10305699;28;20206;-77
2022/08/14 13:21:57;;;;;;;5.90;4.00;;;33.70;99.90;;;;;;10321626;28;20197;-77
2022/08/14 13:27:22;;;;;;;8.13;4.05;;;33.80;99.90;;;;;;10307526;28;20202;-78
2022/08/14 13:32:44;;;;;;;4.55;3.63;;;33.70;93.20;;;;;;10386538;28;20568;-77
2022/08/14 13:38:06;;;;;;;7.18;4.10;;;33.80;98.00;;;;;;10403019;28;20224;-78
2022/08/14 13:43:28;;;;;;;6.68;4.30;;;33.70;99.90;;;;;;10402812;28;20190;-78
2022/08/14 13:48:50;;;;;;;11.68;4.72;;;33.50;99.90;;;;;;10402384;28;20194;-78
2022/08/14 13:54:18;;;;;;;5.68;4.78;;;33.50;99.90;;;;;;10366590;28;20527;-78
2022/08/14 13:59:44;;;;;;;5.95;4.07;;;33.20;99.90;;;;;;10361130;28;20225;-78
2022/08/14 14:05:07;;;;;;;9.98;4.85;;;33.00;99.90;;;;;;10323283;28;20269;-77
2022/08/14 14:10:34;;;;;;;5.88;4.85;;;32.90;99.90;;;;;;10335955;28;20202;-78
2022/08/14 14:15:59;;;;;;;5.03;4.30;;;32.80;99.90;;;;;;10335732;28;20282;-78
2022/08/14 14:21:23;;;;;;;5.75;4.72;;;32.50;99.90;;;;;;10335373;28;20260;-78
2022/08/14 14:26:47;;;;;;;10.55;5.28;;;32.20;99.90;;;;;;10319018;28;20198;-78
2022/08/14 14:32:10;;;;;;;7.32;5.20;;;31.90;99.90;;;;;;10374708;28;20455;-78
2022/08/14 14:37:36;;;;;;;5.40;4.53;;;31.80;99.90;;;;;;10385755;28;20225;-79
2022/08/14 14:43:02;;;;;;;7.40;5.05;;;31.90;99.90;;;;;;10400380;28;20198;-78
2022/08/14 14:48:28;;;;;;;6.22;5.25;;;31.80;99.90;;;;;;10382618;28;20268;-80
2022/08/14 14:53:51;;;;;;;7.78;4.80;;;31.70;99.90;;;;;;10367234;28;20197;-79
2022/08/14 14:59:13;;;;;;;7.03;4.97;;;31.60;99.90;;;;;;10358887;28;20225;-81
2022/08/14 15:04:36;;;;;;;7.18;4.88;;;31.50;99.90;;;;;;10339522;28;20285;-78
2022/08/14 15:09:58;;;;;;;7.95;4.70;;;31.40;99.90;;;;;;10318499;28;20270;-78
2022/08/14 15:15:19;;;;;;;11.30;5.35;;;31.10;99.90;;;;;;10317194;28;20261;-79
2022/08/14 15:20:41;;;;;;;6.95;4.60;;;31.00;99.90;;;;;;10318218;28;20228;-80
2022/08/14 15:26:04;;;;;;;8.80;5.03;;;31.10;99.90;;;;;;10317753;28;20233;-78
2022/08/14 15:31:25;;;;;;;8.43;5.18;;;30.90;99.90;;;;;;10360634;28;20236;-80
2022/08/14 15:36:47;;;;;;;9.88;4.97;;;30.70;99.90;;;;;;10397837;28;20212;-79
2022/08/14 15:42:09;;;;;;;7.25;5.20;;;30.60;99.90;;;;;;10397997;28;20267;-78
2022/08/14 15:47:31;;;;;;;9.15;5.18;;;30.40;99.90;;;;;;10397859;28;20219;-80
2022/08/14 15:52:53;;;;;;;7.85;5.57;;;30.30;99.90;;;;;;10372621;28;20395;-80
2022/08/14 15:58:15;;;;;;;13.27;6.20;;;30.20;99.90;;;;;;10355249;28;20253;-79
2022/08/14 16:03:37;;;;;;;10.70;6.53;;;30.10;99.90;;;;;;10345426;28;20195;-79
2022/08/14 16:08:59;;;;;;;12.50;6.15;;;29.90;1.00;;;;;;10316393;28;20195;-79
2022/08/14 16:14:22;;;;;;;8.70;6.50;;;29.80;1.00;;;;;;10315094;28;20198;-77
2022/08/14 16:19:46;;;;;;;9.98;6.25;;;29.80;1.00;;;;;;10315990;28;20241;-78
2022/08/14 16:25:08;;;;;;;9.23;6.70;;;29.70;1.00;;;;;;10315762;28;20190;-77
2022/08/14 16:30:30;;;;;;;6.85;6.22;;;29.60;1.00;;;;;;10343744;28;20294;-78
2022/08/14 16:35:53;;;;;;;9.07;6.18;;;29.60;1.00;;;;;;10378859;28;20267;-77
2022/08/14 16:41:25;;;;;;;10.75;6.65;;;29.60;1.00;;;;;;10381293;28;20296;-77
2022/08/14 16:46:47;;;;;;;13.43;6.88;;;29.50;1.00;;;;;;10381639;28;20387;-77
2022/08/14 16:52:17;;;;;;;22.98;5.10;;;29.60;92.70;;;;;;10380030;28;20428;-79
2022/08/14 16:57:55;;;;;;;21.33;3.30;;;29.20;1.00;;;;;;10354865;28;20519;-78
2022/08/14 17:03:16;;;;;;;8.18;2.88;;;28.30;1.00;;;;;;10332070;28;20208;-78
2022/08/14 17:08:37;;;;;;;9.40;3.20;;;26.90;1.00;;;;;;10313929;28;20552;-77
2022/08/14 17:13:59;;;;;;;11.05;3.30;;;26.60;1.00;;;;;;10329860;28;20508;-78
2022/08/14 17:19:22;;;;;;;7.70;3.22;;;24.80;99.90;;;;;;10314479;28;20246;-78
2022/08/14 17:24:43;;;;;;;4.72;3.38;;;24.30;1.00;;;;;;10314306;28;20194;-78
2022/08/14 17:30:07;;;;;;;4.68;3.35;;;23.60;57.90;;;;;;10335558;28;20233;-78
2022/08/14 17:35:31;;;;;;;7.07;4.35;;;23.50;1.00;;;;;;10380740;28;20272;-77
2022/08/14 17:41:20;;;;;;;6.00;3.80;;;23.40;1.00;;;;;;10366547;28;20225;-77
2022/08/14 17:46:46;;;;;;;8.82;4.75;;;23.40;1.00;;;;;;10395086;28;20200;-77
2022/08/14 17:52:14;;;;;;;10.35;5.30;;;23.50;1.00;;;;;;10362408;28;20485;-77
2022/08/14 17:57:37;;;;;;;8.25;4.90;;;23.30;1.00;;;;;;10352390;28;20217;-78
2022/08/14 18:03:00;;;;;;;5.80;4.03;;;23.30;1.00;;;;;;10338810;28;20199;-77
2022/08/14 18:08:23;;;;;;;12.43;4.80;;;23.30;1.00;;;;;;10319896;28;20201;-77
2022/08/14 18:13:46;;;;;;;8.15;3.92;;;23.20;1.00;;;;;;10319872;28;20206;-77
2022/08/14 18:19:10;;;;;;;6.43;5.03;;;23.30;1.00;;;;;;10319483;28;20218;-77
2022/08/14 18:24:31;;;;;;;13.68;6.40;;;23.30;1.00;;;;;;10335182;28;20202;-77
2022/08/14 18:29:56;;;;;;;10.02;6.05;;;23.10;11.80;;;;;;10338383;28;20236;-77
2022/08/14 18:35:47;;;;;;;8.63;5.35;;;23.20;25.00;;;;;;10400806;28;20189;-77
2022/08/14 18:41:25;;;;;;;6.93;4.53;;;23.10;54.40;;;;;;10355534;28;20248;-78
2022/08/14 18:47:23;;;;;;;5.80;4.72;;;23.10;46.30;;;;;;10400424;28;20328;-79
2022/08/14 18:52:49;;;;;;;7.47;4.95;;;23.10;41.10;;;;;;10207684;29;20212;-80
2022/08/14 18:58:11;;;;;;;8.55;5.55;;;23.00;1.10;;;;;;10196431;29;20500;-77
2022/08/14 19:03:32;;;;;;;8.43;5.28;;;23.00;5.60;;;;;;10206936;29;20216;-79
2022/08/14 19:08:54;;;;;;;8.48;5.00;;;23.00;25.80;;;;;;10235327;29;20210;-77
2022/08/14 19:14:36;;;;;;;6.85;5.40;;;23.00;1.00;;;;;;10234665;29;20448;-80
2022/08/14 19:20:06;;;;;;;7.50;5.95;;;23.00;29.90;;;;;;10234496;29;20247;-79
2022/08/14 19:25:57;;;;;;;6.93;6.20;;;23.10;69.20;;;;;;10292160;28;20276;-78
2022/08/14 19:31:27;;;;;;;8.73;5.45;;;23.10;26.00;;;;;;10348428;28;20448;-77
2022/08/14 19:36:55;;;;;;;6.97;5.38;;;23.00;1.00;;;;;;10398410;28;20511;-77
2022/08/14 19:42:27;;;;;;;8.05;6.22;;;22.90;8.70;;;;;;10398164;28;20587;-77
2022/08/14 19:47:48;;;;;;;8.25;5.50;;;22.90;1.00;;;;;;10383043;28;20385;-78
2022/08/14 19:53:11;;;;;;;6.40;5.22;;;22.90;1.00;;;;;;10352938;28;20212;-77
2022/08/14 19:58:40;;;;;;;6.60;5.10;;;22.90;1.00;;;;;;10342405;28;20272;-79
2022/08/14 20:04:05;;;;;;;9.75;6.15;;;22.90;1.00;;;;;;10327355;28;20206;-77
2022/08/14 20:09:26;;;;;;;6.50;5.20;;;22.90;1.00;;;;;;10331442;28;20417;-80
2022/08/14 20:14:48;;;;;;;6.47;5.30;;;22.90;1.00;;;;;;10301848;28;20238;-79
2022/08/14 20:20:20;;;;;;;6.60;5.35;;;23.00;1.00;;;;;;10287586;28;20237;-79
2022/08/14 20:25:44;;;;;;;9.98;5.80;;;22.90;1.00;;;;;;10314147;28;20194;-78
2022/08/14 20:31:14;;;;;;;7.20;5.72;;;22.80;1.00;;;;;;10353261;28;20435;-78
2022/08/14 20:36:39;;;;;;;8.90;6.00;;;22.80;1.00;;;;;;10396439;28;20252;-78
2022/08/14 20:48:00;;;;;;;9.25;7.22;;;22.80;1.00;;;;;;10381267;28;20226;-79
2022/08/14 20:53:35;;;;;;;7.28;5.97;;;22.70;1.00;;;;;;10349613;28;20205;-79
2022/08/14 20:58:56;;;;;;;7.22;6.03;;;22.60;1.00;;;;;;10340722;28;20528;-78
2022/08/14 21:04:21;;;;;;;6.95;6.20;;;22.60;1.00;;;;;;10310126;28;20499;-78
2022/08/14 21:09:49;;;;;;;8.63;7.07;;;22.50;1.00;;;;;;10314913;28;20208;-79
2022/08/14 21:15:12;;;;;;;9.73;6.95;;;22.40;1.00;;;;;;10313639;28;20512;-78
2022/08/14 21:20:35;;;;;;;9.05;7.20;;;22.30;1.00;;;;;;10329646;28;20290;-79
2022/08/14 21:25:58;;;;;;;11.05;6.22;;;22.40;1.00;;;;;;10314040;28;20187;-77
2022/08/14 21:31:20;;;;;;;8.27;6.75;;;22.40;1.00;;;;;;10370729;28;20313;-78
2022/08/14 21:36:44;;;;;;;9.10;7.05;;;22.40;1.00;;;;;;10381876;28;20419;-78
2022/08/14 21:42:05;;;;;;;8.35;7.22;;;22.40;1.00;;;;;;10402888;28;20225;-78
2022/08/14 21:47:27;;;;;;;8.75;7.57;;;22.40;1.00;;;;;;10402671;28;20268;-77
2022/08/14 21:52:49;;;;;;;7.72;6.38;;;22.40;1.00;;;;;;10360466;28;20206;-77
2022/08/14 21:58:12;;;;;;;10.43;7.07;;;22.40;1.00;;;;;;10361421;28;20194;-77
2022/08/14 22:03:34;;;;;;;10.48;7.13;;;22.40;1.00;;;;;;10350397;28;20385;-77
2022/08/14 22:08:58;;;;;;;8.88;6.75;;;22.30;1.00;;;;;;10320991;28;20194;-79
2022/08/14 22:14:19;;;;;;;7.57;6.50;;;22.30;1.00;;;;;;10319485;28;20202;-77
2022/08/14 22:19:41;;;;;;;8.07;6.40;;;22.30;1.00;;;;;;10320515;28;20520;-76
2022/08/14 22:25:03;;;;;;;8.20;7.00;;;22.30;1.00;;;;;;10319530;28;20202;-77
2022/08/14 22:30:24;;;;;;;10.70;7.32;;;22.30;1.00;;;;;;10346448;28;20236;-77
2022/08/14 22:35:46;;;;;;;7.60;6.78;;;22.30;1.00;;;;;;10401036;28;20195;-76
2022/08/14 22:41:08;;;;;;;8.18;7.35;;;22.30;1.00;;;;;;10400698;28;20220;-76
2022/08/14 22:46:29;;;;;;;7.20;6.50;;;22.30;1.00;;;;;;10399099;28;20193;-76
2022/08/14 22:51:55;;;;;;;7.97;6.15;;;22.30;1.00;;;;;;10390256;28;20217;-77
2022/08/14 22:57:17;;;;;;;10.27;7.25;;;22.30;1.00;;;;;;10356068;28;20385;-76
2022/08/14 23:02:39;;;;;;;10.40;6.03;;;22.30;1.00;;;;;;10355757;28;20551;-77
2022/08/14 23:08:01;;;;;;;7.82;6.53;;;22.20;1.00;;;;;;10334251;28;20202;-77
2022/08/14 23:13:23;;;;;;;6.70;6.00;;;22.20;1.00;;;;;;10318396;28;20202;-76
2022/08/14 23:18:44;;;;;;;8.18;6.85;;;22.20;1.00;;;;;;10318474;28;20285;-76
2022/08/14 23:24:07;;;;;;;8.07;7.30;;;22.20;1.00;;;;;;10318187;28;20233;-76
2022/08/14 23:29:28;;;;;;;9.13;6.88;;;22.10;1.00;;;;;;10328315;28;20434;-76
2022/08/14 23:34:53;;;;;;;9.95;6.53;;;22.10;1.00;;;;;;10398647;28;20503;-77
2022/08/14 23:40:15;;;;;;;8.45;7.07;;;;;;;;;;10398193;28;20225;-80
2022/08/14 23:45:38;;;;;;;9.18;7.00;;;;;;;;;;10398217;28;20446;-76
2022/08/14 23:51:01;;;;;;;9.40;7.20;;;;;;;;;;10383304;28;20205;-77
2022/08/14 23:56:24;;;;;;;7.00;6.30;;;;;;;;;;10332299;28;20496;-77
